Time;durP1;ratioP1;P1;durP2;ratioP2;P2;SDS_P1;SDS_P2;PMS_P1;PMS_P2;Temp;Humidity;BMP_temperature;BMP_pressure;BME280_temperature;BME280_humidity;BME280_pressure;Samples;Min_cycle;Max_cycle;Signal;HPM_P1;HPM_P2
2021/01/05 07:28:42;;;;;;;;;;;17.70;66.20;;;;;;5090820;27;19919;-47
2021/01/05 07:31:07;;;;;;;;;;;18.00;63.60;;;;;;5082038;28;19912;-52
2021/01/05 07:36:24;;;;;;;;;;;18.40;61.60;;;;;;5081077;28;19927;-40
2021/01/05 07:38:50;;;;;;;;;;;18.40;61.60;;;;;;5083838;28;19912;-41
2021/01/05 07:41:15;;;;;;;;;;;18.50;61.30;;;;;;5079771;28;19962;-41
2021/01/05 07:43:41;;;;;;;;;;;18.50;61.10;;;;;;5083773;28;19917;-41
2021/01/05 07:46:06;;;;;;;;;;;18.50;61.00;;;;;;5086110;28;19913;-41
2021/01/05 07:48:32;;;;;;;;;;;18.50;60.90;;;;;;5079903;28;20403;-40
2021/01/05 07:50:57;;;;;;;;;;;18.60;60.70;;;;;;5082990;28;19912;-41
2021/01/05 07:53:23;;;;;;;;;;;18.60;60.60;;;;;;5070099;28;19912;-42
2021/01/05 07:55:48;;;;;;;;;;;18.60;60.50;;;;;;5084222;28;19960;-41
2021/01/05 07:58:14;;;;;;;;;;;18.60;60.30;;;;;;5085103;28;19912;-40
2021/01/05 08:00:39;;;;;;;;;;;18.70;60.30;;;;;;5076675;28;19913;-40
2021/01/05 08:03:05;;;;;;;;;;;18.70;60.00;;;;;;5072382;28;19912;-41
2021/01/05 08:05:30;;;;;;;;;;;18.70;59.80;;;;;;5084375;28;19917;-40
2021/01/05 08:07:56;;;;;;;;;;;18.80;59.60;;;;;;5084711;28;19912;-41
2021/01/05 08:10:23;;;;;;;;;;;18.80;59.60;;;;;;5064959;28;20261;-57
2021/01/05 08:30:54;;;;;;;6.70;6.20;;;18.60;60.00;;;;;;5083664;27;20376;-34
2021/01/05 08:33:19;;;;;;;7.75;7.00;;;18.70;59.20;;;;;;5062004;28;20040;-34
2021/01/05 08:35:46;;;;;;;9.38;6.85;;;18.90;59.30;;;;;;5063419;28;20027;-37
2021/01/05 08:38:12;;;;;;;7.75;7.05;;;19.10;58.30;;;;;;5066869;28;20061;-33
2021/01/05 08:40:37;;;;;;;9.23;6.13;;;19.20;58.20;;;;;;5064472;28;20064;-34
2021/01/05 08:43:06;;;;;;;6.80;6.20;;;19.20;57.90;;;;;;5064114;28;20073;-33
2021/01/05 08:45:31;;;;;;;7.25;6.55;;;19.20;58.40;;;;;;5062030;28;20063;-32
2021/01/05 08:47:57;;;;;;;7.20;6.60;;;19.30;57.70;;;;;;5065852;28;20056;-33
2021/01/05 08:50:28;;;;;;;6.82;6.40;;;19.20;58.30;;;;;;5065264;28;20094;-33
2021/01/05 08:52:58;;;;;;;7.20;6.60;;;19.20;57.60;;;;;;5063488;28;20047;-33
2021/01/05 08:55:24;;;;;;;7.50;6.80;;;19.20;57.70;;;;;;5065286;28;20040;-35
2021/01/05 08:57:49;;;;;;;6.32;5.93;;;19.20;57.50;;;;;;5065459;28;20074;-35
2021/01/05 09:00:15;;;;;;;5.80;5.40;;;19.10;58.50;;;;;;5064547;28;20449;-33
2021/01/05 09:02:41;;;;;;;6.03;5.63;;;18.90;58.30;;;;;;5062348;28;20021;-32
2021/01/05 09:05:07;;;;;;;7.10;6.50;;;18.70;58.60;;;;;;5081953;28;20036;-33
2021/01/05 09:07:33;;;;;;;6.30;5.80;;;18.60;59.00;;;;;;5066959;28;20021;-32
2021/01/05 09:09:58;;;;;;;7.15;6.45;;;18.50;59.10;;;;;;5065592;28;20070;-33
2021/01/05 09:12:29;;;;;;;6.95;6.45;;;18.50;59.30;;;;;;5061218;28;20048;-33
2021/01/05 09:14:55;;;;;;;5.90;5.40;;;18.40;59.40;;;;;;5063454;28;20037;-33
2021/01/05 09:17:20;;;;;;;6.35;5.75;;;18.40;59.50;;;;;;5053202;28;20511;-33
2021/01/05 09:19:46;;;;;;;6.10;5.53;;;18.30;59.70;;;;;;5067230;28;20036;-32
2021/01/05 09:22:12;;;;;;;5.72;5.25;;;18.30;59.80;;;;;;5065208;28;20024;-40
2021/01/05 09:24:37;;;;;;;6.00;5.60;;;18.30;60.70;;;;;;5072722;28;20043;-41
2021/01/05 09:27:03;;;;;;;5.20;4.88;;;18.20;59.80;;;;;;5069306;28;20025;-38
2021/01/05 09:29:28;;;;;;;7.45;6.85;;;18.20;60.10;;;;;;5062706;28;20056;-34
2021/01/05 09:31:54;;;;;;;8.05;7.15;;;18.20;60.10;;;;;;5064340;28;20024;-41
2021/01/05 09:34:21;;;;;;;6.53;5.97;;;18.20;59.90;;;;;;5060080;28;20119;-34
2021/01/05 09:36:47;;;;;;;5.47;5.07;;;18.30;60.50;;;;;;5063755;28;20115;-33
2021/01/05 09:39:16;;;;;;;5.95;5.55;;;18.30;60.20;;;;;;5063350;28;20742;-34
2021/01/05 09:41:43;;;;;;;4.93;4.63;;;18.20;60.60;;;;;;5067901;28;20090;-33
2021/01/05 09:44:09;;;;;;;9.20;5.85;;;18.30;60.60;;;;;;5048596;28;20037;-35
2021/01/05 09:46:35;;;;;;;5.15;4.70;;;18.30;60.70;;;;;;5052525;28;20040;-34
2021/01/05 09:49:01;;;;;;;5.65;5.25;;;18.30;60.60;;;;;;5069895;28;20032;-34
2021/01/05 09:51:28;;;;;;;6.15;5.63;;;18.20;60.70;;;;;;5051547;28;20037;-33
2021/01/05 09:53:54;;;;;;;5.53;5.03;;;18.20;60.60;;;;;;5045494;28;20036;-35
2021/01/05 09:56:20;;;;;;;5.63;5.05;;;18.30;60.70;;;;;;5050495;28;20029;-34
2021/01/05 09:58:47;;;;;;;5.63;5.22;;;18.30;60.80;;;;;;5051483;28;20029;-35
2021/01/05 10:01:12;;;;;;;6.07;5.57;;;18.30;60.80;;;;;;5051668;28;20009;-36
2021/01/05 10:03:38;;;;;;;6.35;5.82;;;18.30;60.80;;;;;;5049641;28;20033;-34
2021/01/05 10:06:04;;;;;;;6.30;5.80;;;18.30;60.70;;;;;;5049328;28;20075;-37
2021/01/05 10:08:29;;;;;;;7.20;5.60;;;18.30;60.80;;;;;;5051160;28;20028;-32
2021/01/05 10:10:55;;;;;;;6.75;5.53;;;18.40;60.60;;;;;;5050394;28;20449;-34
2021/01/05 10:13:21;;;;;;;6.80;6.30;;;18.50;60.40;;;;;;5051444;28;20100;-34
2021/01/05 10:15:46;;;;;;;6.28;5.25;;;18.50;60.20;;;;;;5051051;28;20703;-34
2021/01/05 10:18:12;;;;;;;5.65;5.28;;;18.60;59.80;;;;;;5050822;28;20103;-33
2021/01/05 10:20:37;;;;;;;5.32;5.00;;;18.70;60.80;;;;;;5048930;28;20098;-33
2021/01/05 10:23:03;;;;;;;5.57;5.03;;;18.70;59.40;;;;;;5050072;28;20021;-35
2021/01/05 10:25:28;;;;;;;5.80;5.40;;;18.80;59.70;;;;;;5051949;28;20025;-33
2021/01/05 10:27:54;;;;;;;5.30;4.90;;;18.90;59.40;;;;;;5045842;28;20039;-34
2021/01/05 10:30:20;;;;;;;4.78;4.47;;;18.90;59.10;;;;;;5047826;28;20120;-37
2021/01/05 10:32:46;;;;;;;4.82;4.53;;;18.70;59.20;;;;;;5047083;28;20072;-34
2021/01/05 10:35:13;;;;;;;5.53;5.13;;;18.70;59.60;;;;;;5052092;28;20024;-34
2021/01/05 10:37:39;;;;;;;5.13;4.72;;;18.60;60.00;;;;;;5045719;28;20052;-34
2021/01/05 10:40:05;;;;;;;5.43;5.03;;;18.60;60.40;;;;;;5048215;28;20485;-34
2021/01/05 10:42:31;;;;;;;5.13;4.78;;;18.60;60.40;;;;;;5061706;28;20028;-33
2021/01/05 10:44:56;;;;;;;5.20;4.90;;;18.60;60.40;;;;;;5047769;28;20029;-33
2021/01/05 10:47:22;;;;;;;6.20;5.28;;;18.60;60.30;;;;;;5000654;28;20036;-33
2021/01/05 10:49:47;;;;;;;7.32;5.65;;;18.60;60.20;;;;;;5046439;28;20045;-33
2021/01/05 10:52:15;;;;;;;5.30;4.80;;;18.60;60.50;;;;;;5053616;28;20106;-33
2021/01/05 10:54:40;;;;;;;5.43;4.90;;;18.60;60.40;;;;;;5056188;28;20465;-34
2021/01/05 10:57:06;;;;;;;4.82;4.47;;;18.50;60.40;;;;;;5055374;28;20082;-34
2021/01/05 10:59:33;;;;;;;5.15;4.85;;;18.50;60.50;;;;;;5061952;28;20040;-34
2021/01/05 11:02:00;;;;;;;6.45;4.60;;;18.50;60.50;;;;;;5058657;28;20039;-33
2021/01/05 11:04:26;;;;;;;4.35;3.95;;;18.40;61.50;;;;;;5054622;28;20029;-33
2021/01/05 11:06:53;;;;;;;5.00;4.47;;;18.40;60.70;;;;;;5052952;28;20040;-34
2021/01/05 11:09:19;;;;;;;4.85;4.28;;;18.40;60.80;;;;;;5044499;28;20061;-34
2021/01/05 11:11:45;;;;;;;4.18;3.95;;;18.40;60.90;;;;;;5050214;28;20028;-33
2021/01/05 11:14:10;;;;;;;4.72;4.40;;;18.40;60.70;;;;;;5044423;28;20051;-34
2021/01/05 11:16:36;;;;;;;4.40;4.20;;;18.30;61.40;;;;;;5047638;28;20025;-34
2021/01/05 11:19:01;;;;;;;4.50;4.20;;;18.30;61.50;;;;;;5047291;28;20403;-34
2021/01/05 11:21:27;;;;;;;4.05;3.75;;;18.30;60.70;;;;;;5046027;28;20079;-34
2021/01/05 11:23:52;;;;;;;4.50;4.20;;;18.30;60.70;;;;;;5036677;28;20087;-34
2021/01/05 11:26:18;;;;;;;4.60;4.40;;;18.30;60.70;;;;;;5050696;28;20033;-35
2021/01/05 11:28:43;;;;;;;4.70;4.38;;;18.20;60.90;;;;;;5047479;28;20064;-35
2021/01/05 11:31:09;;;;;;;3.70;3.50;;;18.30;61.50;;;;;;5044206;28;20393;-35
2021/01/05 11:33:35;;;;;;;4.22;4.00;;;18.30;60.60;;;;;;5046191;28;20029;-34
2021/01/05 11:36:00;;;;;;;4.13;3.92;;;18.30;60.70;;;;;;5048687;28;20035;-36
2021/01/05 11:38:26;;;;;;;4.20;3.90;;;18.30;60.50;;;;;;5049773;28;20024;-33
2021/01/05 11:40:51;;;;;;;4.15;3.90;;;18.20;60.70;;;;;;5050261;28;20061;-34
2021/01/05 11:43:17;;;;;;;4.38;4.00;;;18.20;61.50;;;;;;4696919;28;9999902;-34
2021/01/05 11:45:42;;;;;;;3.33;3.20;;;18.20;60.90;;;;;;5043141;28;20036;-34
2021/01/05 11:48:08;;;;;;;3.95;3.70;;;18.20;61.10;;;;;;5045841;28;20053;-34
2021/01/05 11:50:34;;;;;;;3.70;3.50;;;18.20;61.10;;;;;;5041445;28;20033;-36
2021/01/05 11:52:59;;;;;;;3.83;3.55;;;18.10;61.30;;;;;;5039278;28;20075;-34
2021/01/05 11:55:25;;;;;;;3.80;3.58;;;18.10;61.20;;;;;;5043173;28;20028;-34
2021/01/05 11:57:50;;;;;;;4.25;3.95;;;18.10;61.30;;;;;;5045335;28;20037;-33
2021/01/05 12:00:18;;;;;;;4.78;4.47;;;18.10;61.40;;;;;;5044129;28;20570;-34
2021/01/05 12:02:44;;;;;;;4.45;4.05;;;18.10;61.40;;;;;;5040679;28;20106;-33
2021/01/05 12:05:13;;;;;;;4.85;3.50;;;18.10;61.40;;;;;;5049091;28;20056;-34
2021/01/05 12:07:39;;;;;;;5.47;4.03;;;18.10;61.40;;;;;;5041413;28;20040;-36
2021/01/05 12:10:05;;;;;;;4.10;3.90;;;18.10;61.50;;;;;;5044312;28;20041;-34
2021/01/05 12:12:30;;;;;;;4.47;4.10;;;18.10;61.80;;;;;;5046476;28;20040;-33
2021/01/05 12:14:56;;;;;;;6.65;4.07;;;18.20;61.60;;;;;;5048965;28;20039;-38
2021/01/05 12:17:21;;;;;;;4.68;4.05;;;18.20;61.70;;;;;;5049362;28;20031;-34
2021/01/05 12:19:47;;;;;;;3.78;3.47;;;18.20;61.90;;;;;;5044594;28;20033;-35
2021/01/05 12:22:13;;;;;;;3.88;3.58;;;18.20;61.90;;;;;;5049512;28;20029;-35
2021/01/05 12:24:38;;;;;;;3.50;3.20;;;18.30;61.80;;;;;;5043550;28;20163;-34
2021/01/05 12:27:06;;;;;;;4.82;3.75;;;18.30;62.00;;;;;;5041730;28;20029;-36
2021/01/05 12:29:34;;;;;;;3.33;3.00;;;18.30;62.10;;;;;;5041582;28;20095;-36
2021/01/05 12:32:02;;;;;;;5.03;3.88;;;18.30;61.90;;;;;;5039886;28;20033;-35
2021/01/05 12:34:30;;;;;;;5.75;3.75;;;18.30;62.20;;;;;;5043967;28;20520;-37
2021/01/05 12:36:55;;;;;;;6.35;4.00;;;18.30;62.30;;;;;;5044154;28;20083;-37
2021/01/05 12:39:25;;;;;;;3.83;3.53;;;18.30;62.20;;;;;;5046499;28;20672;-35
2021/01/05 12:41:51;;;;;;;6.30;3.40;;;18.30;62.30;;;;;;5042115;28;20029;-35
2021/01/05 12:44:20;;;;;;;3.85;3.15;;;18.20;62.40;;;;;;5046020;28;20095;-35
2021/01/05 12:46:46;;;;;;;3.83;3.30;;;18.20;62.50;;;;;;5046944;28;21141;-35
2021/01/05 12:49:13;;;;;;;4.05;3.65;;;18.20;62.40;;;;;;5037307;28;20493;-35
2021/01/05 12:51:40;;;;;;;4.25;3.85;;;18.20;62.30;;;;;;5044231;28;20036;-35
2021/01/05 12:54:06;;;;;;;6.68;4.45;;;18.20;63.30;;;;;;5043541;28;20029;-36
2021/01/05 12:56:32;;;;;;;4.28;3.97;;;18.20;63.10;;;;;;5040837;28;20028;-35
2021/01/05 12:58:58;;;;;;;4.88;4.57;;;18.30;62.40;;;;;;5040582;28;20033;-35
2021/01/05 13:01:23;;;;;;;4.88;4.57;;;18.30;62.40;;;;;;5043772;28;20025;-35
2021/01/05 13:03:49;;;;;;;5.43;4.93;;;18.30;62.80;;;;;;5045679;28;20117;-35
2021/01/05 13:06:15;;;;;;;5.88;5.38;;;18.40;62.90;;;;;;5045243;28;20397;-35
2021/01/05 13:08:41;;;;;;;5.05;4.68;;;18.30;62.50;;;;;;5043722;28;20036;-35
2021/01/05 13:11:07;;;;;;;4.45;4.25;;;18.30;62.50;;;;;;5044199;28;20032;-35
2021/01/05 13:13:33;;;;;;;5.47;4.50;;;18.40;62.50;;;;;;5059111;28;20045;-34
2021/01/05 13:15:59;;;;;;;5.05;4.60;;;18.40;62.60;;;;;;5046585;28;20068;-34
2021/01/05 13:18:24;;;;;;;4.63;4.30;;;18.40;62.60;;;;;;5048967;28;20048;-35
2021/01/05 13:20:50;;;;;;;4.55;4.18;;;18.40;62.50;;;;;;5045875;28;20034;-35
2021/01/05 13:23:15;;;;;;;4.25;3.88;;;18.40;62.40;;;;;;5047679;28;20031;-35
2021/01/05 13:25:41;;;;;;;4.13;3.92;;;18.30;62.40;;;;;;5049111;28;20025;-35
2021/01/05 13:28:06;;;;;;;3.90;3.70;;;18.30;62.50;;;;;;5050039;28;20035;-35
2021/01/05 13:30:32;;;;;;;4.22;4.03;;;18.30;62.50;;;;;;5049579;28;20052;-35
2021/01/05 13:32:58;;;;;;;3.60;3.40;;;18.30;62.40;;;;;;5047039;28;20484;-34
2021/01/05 13:35:23;;;;;;;3.35;3.13;;;18.30;62.40;;;;;;5047647;28;20103;-34
2021/01/05 13:37:49;;;;;;;4.28;3.97;;;18.30;62.30;;;;;;5048183;28;20022;-34
2021/01/05 13:40:14;;;;;;;3.30;3.17;;;18.30;62.30;;;;;;5051834;28;20028;-34
2021/01/05 13:42:40;;;;;;;3.67;3.47;;;18.30;62.30;;;;;;5049639;28;20040;-34
2021/01/05 13:45:07;;;;;;;4.57;3.60;;;18.30;62.20;;;;;;5052199;28;20117;-37
2021/01/05 13:47:32;;;;;;;3.20;3.00;;;18.30;62.40;;;;;;5047449;28;20504;-35
2021/01/05 13:49:58;;;;;;;9.20;3.22;;;18.30;62.30;;;;;;5052195;28;20033;-34
2021/01/05 13:52:26;;;;;;;3.30;3.10;;;18.30;62.40;;;;;;5053494;28;20032;-33
2021/01/05 13:54:52;;;;;;;3.30;3.10;;;18.20;62.30;;;;;;5052081;28;20488;-32
2021/01/05 13:57:22;;;;;;;2.78;2.67;;;18.20;62.20;;;;;;5052203;28;20082;-32
2021/01/05 13:59:48;;;;;;;2.47;2.38;;;18.20;62.30;;;;;;5048674;28;20475;-34
2021/01/05 14:02:14;;;;;;;3.22;2.92;;;18.20;62.00;;;;;;5051432;28;20492;-35
2021/01/05 14:04:39;;;;;;;2.67;2.58;;;18.20;62.00;;;;;;5048273;28;20496;-35
2021/01/05 14:07:09;;;;;;;3.88;2.80;;;18.20;62.90;;;;;;5044481;28;20115;-40
2021/01/05 14:09:35;;;;;;;2.80;2.60;;;18.20;62.10;;;;;;5042213;28;20041;-36
2021/01/05 14:12:01;;;;;;;3.13;2.92;;;18.20;62.00;;;;;;5045834;28;20518;-34
2021/01/05 14:14:27;;;;;;;2.83;2.72;;;18.20;61.90;;;;;;5049589;28;20037;-34
2021/01/05 14:16:53;;;;;;;2.38;2.28;;;18.20;62.70;;;;;;5051727;28;20028;-34
2021/01/05 14:19:19;;;;;;;2.50;2.28;;;18.20;61.90;;;;;;5052546;28;20044;-35
2021/01/05 14:21:45;;;;;;;2.83;2.72;;;18.20;61.90;;;;;;5045890;28;20029;-35
2021/01/05 14:24:19;;;;;;;3.35;3.05;;;18.20;61.90;;;;;;5043716;28;20029;-35
2021/01/05 14:26:45;;;;;;;2.60;2.50;;;18.20;61.90;;;;;;5051032;28;20037;-34
2021/01/05 14:29:10;;;;;;;2.47;2.38;;;18.20;61.90;;;;;;5051548;28;20040;-34
2021/01/05 14:31:36;;;;;;;2.45;2.35;;;18.20;62.70;;;;;;5038048;28;20029;-35
2021/01/05 14:34:01;;;;;;;2.13;2.03;;;18.20;61.90;;;;;;5047453;28;20405;-34
2021/01/05 14:36:32;;;;;;;2.50;2.28;;;18.20;62.70;;;;;;5047298;28;20021;-35
2021/01/05 14:38:58;;;;;;;2.58;2.47;;;18.20;61.80;;;;;;5047288;28;20059;-34
2021/01/05 14:41:28;;;;;;;2.33;2.22;;;18.20;61.80;;;;;;5050612;28;20445;-34
2021/01/05 14:43:54;;;;;;;2.20;2.10;;;18.20;61.90;;;;;;5049657;28;20401;-35
2021/01/05 14:46:21;;;;;;;2.22;2.13;;;18.20;61.70;;;;;;5052603;28;20029;-34
2021/01/05 14:48:47;;;;;;;2.28;2.17;;;18.20;61.60;;;;;;5067236;28;20028;-34
2021/01/05 14:51:14;;;;;;;2.50;2.40;;;18.20;61.80;;;;;;5047537;28;20020;-35
2021/01/05 14:53:41;;;;;;;2.10;2.00;;;18.20;61.70;;;;;;5051918;28;20107;-35
2021/01/05 14:56:13;;;;;;;1.95;1.85;;;18.20;61.70;;;;;;5051824;28;20496;-35
2021/01/05 14:58:39;;;;;;;2.30;2.20;;;18.20;61.60;;;;;;5047502;28;20540;-35
2021/01/05 15:01:04;;;;;;;2.10;2.00;;;18.20;61.50;;;;;;5047010;28;20034;-35
2021/01/05 15:03:30;;;;;;;3.72;2.33;;;18.20;61.30;;;;;;5047447;28;20496;-39
2021/01/05 15:05:55;;;;;;;2.22;2.03;;;18.20;61.40;;;;;;5047252;28;20034;-34
2021/01/05 15:08:21;;;;;;;2.53;2.42;;;18.20;61.40;;;;;;5050285;28;20055;-36
2021/01/05 15:10:47;;;;;;;2.30;2.20;;;18.20;61.30;;;;;;5048514;28;20045;-36
2021/01/05 15:13:12;;;;;;;2.40;2.30;;;18.10;61.20;;;;;;5048012;28;20131;-34
2021/01/05 15:15:38;;;;;;;2.30;2.20;;;18.20;62.20;;;;;;5045653;28;20429;-36
2021/01/05 15:18:04;;;;;;;2.40;2.30;;;18.20;61.30;;;;;;5047691;28;20028;-35
2021/01/05 15:20:29;;;;;;;2.78;2.20;;;18.20;61.20;;;;;;5050743;28;20037;-35
2021/01/05 15:22:55;;;;;;;2.63;2.42;;;18.20;61.20;;;;;;5050132;28;20112;-35
2021/01/05 15:25:20;;;;;;;2.33;1.90;;;18.20;61.30;;;;;;5047814;28;20029;-35
2021/01/05 15:27:46;;;;;;;2.22;2.13;;;18.20;61.10;;;;;;5046341;28;20512;-35
2021/01/05 15:30:12;;;;;;;2.38;2.28;;;18.20;61.10;;;;;;5039263;28;20095;-35
2021/01/05 15:32:38;;;;;;;3.65;1.90;;;18.20;61.10;;;;;;5047835;28;20025;-35
2021/01/05 15:35:04;;;;;;;1.88;1.77;;;18.20;61.10;;;;;;5049775;28;20070;-32
2021/01/05 15:37:30;;;;;;;2.72;2.30;;;18.20;61.10;;;;;;5046905;28;20053;-33
2021/01/05 15:39:56;;;;;;;2.05;1.95;;;18.20;61.10;;;;;;5045965;28;20079;-33
2021/01/05 15:42:21;;;;;;;2.03;1.92;;;18.20;61.80;;;;;;5045916;28;20025;-33
2021/01/05 15:44:47;;;;;;;2.05;1.70;;;18.10;61.00;;;;;;5046159;28;20056;-34
2021/01/05 15:47:12;;;;;;;1.90;1.80;;;18.10;61.00;;;;;;5050480;28;20029;-33
2021/01/05 15:49:38;;;;;;;1.90;1.80;;;18.10;61.00;;;;;;5050327;28;20044;-33
2021/01/05 15:52:03;;;;;;;2.17;2.08;;;18.10;61.00;;;;;;5048988;28;20035;-33
2021/01/05 15:54:29;;;;;;;1.80;1.70;;;18.10;61.10;;;;;;5045860;28;20029;-34
2021/01/05 15:56:56;;;;;;;6.70;1.98;;;18.10;61.10;;;;;;5046219;28;20404;-33
2021/01/05 15:59:25;;;;;;;1.90;1.80;;;18.10;61.00;;;;;;5050093;28;20060;-33
2021/01/05 16:01:51;;;;;;;2.13;2.03;;;18.10;61.00;;;;;;5050414;28;20106;-34
2021/01/05 16:04:16;;;;;;;2.42;2.00;;;18.10;61.80;;;;;;5049940;28;20119;-33
2021/01/05 16:06:43;;;;;;;1.95;1.85;;;18.10;61.00;;;;;;5043675;28;20116;-33
2021/01/05 16:09:09;;;;;;;1.98;1.88;;;18.10;61.00;;;;;;5045379;28;20496;-34
2021/01/05 16:11:35;;;;;;;2.22;2.13;;;18.00;61.10;;;;;;5062083;28;20033;-35
2021/01/05 16:14:05;;;;;;;5.00;2.15;;;18.00;61.10;;;;;;5048659;28;20562;-33
2021/01/05 16:16:30;;;;;;;2.85;2.00;;;18.00;61.00;;;;;;5050663;28;20025;-33
2021/01/05 16:18:56;;;;;;;1.80;1.70;;;18.00;61.00;;;;;;5078744;28;20036;-33
2021/01/05 16:21:22;;;;;;;5.90;4.68;;;18.00;61.10;;;;;;5046066;28;20032;-33
2021/01/05 16:23:48;;;;;;;13.80;9.30;;;18.00;61.30;;;;;;5045617;28;20021;-34
2021/01/05 16:26:14;;;;;;;13.20;7.85;;;18.00;61.40;;;;;;5050598;28;20021;-33
2021/01/05 16:28:39;;;;;;;5.40;4.93;;;18.00;61.70;;;;;;5045685;28;20115;-34
2021/01/05 16:31:05;;;;;;;9.50;7.30;;;18.00;61.50;;;;;;5045374;28;20053;-33
2021/01/05 16:33:30;;;;;;;9.05;7.07;;;18.00;62.20;;;;;;5045582;28;20108;-33
2021/01/05 16:35:57;;;;;;;7.10;5.30;;;18.10;61.50;;;;;;5059857;28;20099;-36
2021/01/05 16:38:22;;;;;;;6.97;5.18;;;18.10;61.90;;;;;;5044124;28;20052;-35
2021/01/05 16:40:49;;;;;;;7.47;5.25;;;18.10;62.30;;;;;;5047427;28;20464;-35
2021/01/05 16:43:19;;;;;;;6.00;5.32;;;18.10;61.30;;;;;;5046099;28;20079;-37
2021/01/05 16:45:45;;;;;;;4.68;4.28;;;18.10;61.30;;;;;;5044830;28;20468;-35
2021/01/05 16:48:11;;;;;;;5.88;5.03;;;18.10;61.10;;;;;;5042073;28;20069;-39
2021/01/05 16:50:36;;;;;;;6.07;5.50;;;18.20;61.10;;;;;;5047852;28;20059;-35
2021/01/05 16:53:04;;;;;;;5.10;4.70;;;18.10;61.00;;;;;;5052721;28;20082;-35
2021/01/05 16:55:29;;;;;;;5.03;4.45;;;18.20;61.20;;;;;;5049783;28;20147;-40
2021/01/05 16:57:55;;;;;;;7.70;6.20;;;18.20;61.30;;;;;;5047265;28;20119;-36
2021/01/05 17:00:31;;;;;;;7.35;5.75;;;18.10;61.20;;;;;;5051574;28;20028;-36
2021/01/05 17:02:56;;;;;;;4.90;4.55;;;18.10;60.90;;;;;;5048905;28;20090;-37
2021/01/05 17:05:24;;;;;;;5.72;5.10;;;18.10;61.10;;;;;;5051831;28;20484;-37
2021/01/05 17:15:02;;;;;;;5.90;2.47;;;19.20;58.30;;;;;;5104273;27;20699;-59
2021/01/05 17:20:33;;;;;;;2.22;2.08;;;18.90;58.80;;;;;;5118100;27;20356;-70
2021/01/05 17:22:59;;;;;;;2.33;1.92;;;18.60;59.40;;;;;;5123719;28;20043;-77
2021/01/05 17:25:27;;;;;;;2.28;2.08;;;18.30;60.00;;;;;;5126297;28;20505;-73
2021/01/05 17:27:52;;;;;;;1.85;1.75;;;18.10;60.80;;;;;;5121115;27;20032;-74
2021/01/05 17:30:20;;;;;;;1.98;1.88;;;18.00;61.40;;;;;;5122002;28;20024;-78
2021/01/05 17:32:46;;;;;;;1.92;1.80;;;17.90;62.00;;;;;;5123854;28;20106;-74
2021/01/05 17:35:13;;;;;;;1.98;1.88;;;17.80;62.10;;;;;;5120671;28;20112;-71
2021/01/05 17:37:38;;;;;;;1.85;1.65;;;17.70;62.10;;;;;;5125682;28;20756;-77
2021/01/05 17:40:08;;;;;;;1.70;1.60;;;17.70;62.50;;;;;;5123954;27;20036;-75
2021/01/05 17:42:34;;;;;;;2.08;1.98;;;17.70;62.30;;;;;;5066875;27;20386;-78
2021/01/05 17:45:00;;;;;;;2.03;1.92;;;17.70;62.40;;;;;;5061835;28;20075;-73
2021/01/05 17:47:25;;;;;;;2.40;2.30;;;17.70;63.70;;;;;;5065281;28;20036;-78
2021/01/05 17:49:51;;;;;;;1.83;1.73;;;17.70;62.30;;;;;;5064570;28;20083;-72
2021/01/05 17:52:17;;;;;;;2.13;1.92;;;17.70;62.10;;;;;;5066559;28;20496;-77
2021/01/05 17:54:42;;;;;;;2.35;2.22;;;17.70;62.40;;;;;;5055335;28;20029;-73
2021/01/05 17:57:08;;;;;;;2.78;2.58;;;17.70;62.30;;;;;;5065170;28;20039;-73
2021/01/05 17:59:34;;;;;;;2.67;2.47;;;17.60;62.40;;;;;;5064115;28;20061;-72
2021/01/05 18:01:59;;;;;;;3.20;2.33;;;17.60;62.60;;;;;;5065456;28;20504;-77
2021/01/05 18:04:25;;;;;;;2.30;2.10;;;17.70;63.50;;;;;;5065075;28;20025;-76
2021/01/05 18:06:50;;;;;;;3.15;2.17;;;17.60;62.60;;;;;;5066053;28;20044;-70
2021/01/05 18:09:16;;;;;;;2.55;2.28;;;17.60;62.60;;;;;;5064070;28;20017;-65
2021/01/05 18:11:45;;;;;;;3.47;2.05;;;17.60;62.80;;;;;;5064669;28;20060;-70
2021/01/05 18:14:11;;;;;;;2.20;2.10;;;17.60;62.80;;;;;;5060903;28;20032;-67
2021/01/05 18:16:36;;;;;;;2.03;1.92;;;17.70;63.00;;;;;;5062000;28;20028;-67
2021/01/05 18:19:02;;;;;;;2.15;2.03;;;17.60;63.00;;;;;;5061286;28;20044;-69
2021/01/05 18:21:38;;;;;;;1.92;1.83;;;17.60;63.20;;;;;;5065264;28;20107;-70
2021/01/05 18:24:04;;;;;;;2.30;2.20;;;17.70;63.30;;;;;;4708279;28;9999962;-66
2021/01/05 18:26:32;;;;;;;2.22;2.03;;;17.70;63.40;;;;;;5061545;28;20083;-65
2021/01/05 18:29:09;;;;;;;2.13;2.03;;;17.70;63.40;;;;;;5075834;28;20396;-66
2021/01/05 18:31:35;;;;;;;2.40;2.20;;;17.80;63.40;;;;;;5050663;28;20041;-66
2021/01/05 18:34:01;;;;;;;2.50;1.92;;;17.80;63.30;;;;;;5044653;28;20078;-66
2021/01/05 18:36:31;;;;;;;2.75;1.75;;;17.80;63.30;;;;;;5045604;28;20108;-66
2021/01/05 18:38:57;;;;;;;1.75;1.65;;;17.90;63.30;;;;;;5044764;28;20037;-67
2021/01/05 18:41:28;;;;;;;1.65;1.55;;;17.90;63.00;;;;;;5047061;28;20036;-67
2021/01/05 18:43:54;;;;;;;2.83;2.05;;;18.00;62.90;;;;;;5042766;28;21687;-67
2021/01/05 18:46:19;;;;;;;2.00;1.90;;;18.00;62.80;;;;;;5046701;28;20044;-67
2021/01/05 18:48:45;;;;;;;1.80;1.70;;;18.10;62.70;;;;;;5043912;28;20021;-65
2021/01/05 18:51:11;;;;;;;2.03;1.92;;;18.10;62.60;;;;;;5045361;28;20052;-67
2021/01/05 18:53:37;;;;;;;2.13;2.03;;;18.10;62.60;;;;;;5045386;28;20056;-66
2021/01/05 18:56:03;;;;;;;1.90;1.80;;;18.20;62.40;;;;;;5043981;28;20032;-67
2021/01/05 18:58:28;;;;;;;2.20;2.10;;;18.20;62.20;;;;;;5049029;28;20037;-69
2021/01/05 19:00:54;;;;;;;2.25;2.15;;;18.20;62.20;;;;;;5048602;28;20037;-69
2021/01/05 19:03:19;;;;;;;1.88;1.77;;;18.30;62.00;;;;;;5048008;28;20543;-66
2021/01/05 19:05:45;;;;;;;3.30;2.20;;;18.30;62.00;;;;;;5045693;28;20029;-69
2021/01/05 19:08:14;;;;;;;2.17;2.08;;;18.40;62.10;;;;;;5046020;28;20491;-69
2021/01/05 19:10:44;;;;;;;3.05;2.03;;;18.40;61.90;;;;;;5048166;28;20114;-69
2021/01/05 19:13:10;;;;;;;2.25;1.85;;;18.40;61.90;;;;;;5046699;28;20738;-68
2021/01/05 19:15:36;;;;;;;1.95;1.85;;;18.40;62.10;;;;;;5045992;28;20076;-68
2021/01/05 19:18:02;;;;;;;1.92;1.60;;;18.40;62.00;;;;;;5044260;28;20068;-69
2021/01/05 19:20:28;;;;;;;1.70;1.60;;;18.50;62.10;;;;;;5044987;28;20049;-70
2021/01/05 19:23:00;;;;;;;3.47;1.65;;;18.50;61.90;;;;;;5046849;28;20535;-68
2021/01/05 19:25:28;;;;;;;1.85;1.75;;;18.50;61.90;;;;;;5049358;28;20063;-70
2021/01/05 19:27:54;;;;;;;1.65;1.52;;;18.50;61.90;;;;;;5048009;28;20043;-70
2021/01/05 19:30:23;;;;;;;1.67;1.58;;;18.50;62.10;;;;;;5046169;28;20052;-70
2021/01/05 19:32:50;;;;;;;1.48;1.38;;;18.60;62.00;;;;;;5044490;28;20044;-68
2021/01/05 19:35:16;;;;;;;1.65;1.55;;;18.50;62.00;;;;;;5059743;28;20171;-70
2021/01/05 19:37:41;;;;;;;1.73;1.63;;;18.60;62.10;;;;;;5046970;28;20108;-70
2021/01/05 19:40:07;;;;;;;1.60;1.50;;;18.60;61.90;;;;;;5043807;28;20119;-69
2021/01/05 19:42:43;;;;;;;1.95;1.75;;;18.60;62.10;;;;;;4782549;28;10001472;-67
2021/01/05 19:45:17;;;;;;;1.60;1.50;;;18.60;61.80;;;;;;4716959;28;10000361;-69
2021/01/05 19:47:42;;;;;;;1.80;1.70;;;18.60;61.80;;;;;;5046386;28;20027;-70
2021/01/05 19:50:08;;;;;;;1.83;1.73;;;18.70;61.80;;;;;;5045458;28;20025;-71
2021/01/05 19:52:34;;;;;;;2.38;1.80;;;18.60;61.70;;;;;;5048554;28;20033;-69
2021/01/05 19:55:00;;;;;;;1.52;1.42;;;18.70;62.00;;;;;;5043045;28;20047;-70
2021/01/05 19:57:26;;;;;;;1.90;1.70;;;18.70;61.70;;;;;;5045194;28;20492;-67
2021/01/05 19:59:52;;;;;;;1.80;1.40;;;18.70;61.90;;;;;;5045871;28;20066;-69
2021/01/05 20:02:17;;;;;;;1.27;1.23;;;18.70;62.00;;;;;;5044040;28;20028;-71
2021/01/05 20:04:43;;;;;;;1.80;1.63;;;18.70;62.00;;;;;;5045408;28;20056;-73
2021/01/05 20:07:09;;;;;;;1.75;1.65;;;18.70;61.80;;;;;;5056564;28;20064;-70
2021/01/05 20:09:35;;;;;;;2.40;1.90;;;18.70;61.80;;;;;;5045006;28;20033;-70
2021/01/05 20:12:03;;;;;;;1.90;1.80;;;18.70;61.80;;;;;;5045123;28;20031;-70
2021/01/05 20:14:29;;;;;;;1.70;1.60;;;18.70;61.70;;;;;;5026434;28;20503;-69
2021/01/05 20:16:54;;;;;;;1.48;1.48;;;18.70;61.80;;;;;;5044524;28;20024;-69
2021/01/05 20:19:21;;;;;;;1.88;1.77;;;18.70;61.90;;;;;;5047263;28;20044;-70
2021/01/05 20:21:50;;;;;;;1.73;1.63;;;18.70;61.80;;;;;;5045987;28;20064;-69
2021/01/05 20:24:15;;;;;;;1.83;1.73;;;18.70;61.80;;;;;;5042088;28;20667;-69
2021/01/05 20:26:41;;;;;;;1.55;1.45;;;18.70;61.90;;;;;;5049044;28;20021;-70
2021/01/05 20:29:06;;;;;;;1.90;1.80;;;18.70;61.70;;;;;;5045467;28;20473;-70
2021/01/05 20:31:32;;;;;;;1.55;1.45;;;18.70;61.80;;;;;;5048213;28;20040;-76
2021/01/05 20:33:57;;;;;;;1.77;1.65;;;18.70;62.00;;;;;;5046699;28;20033;-71
2021/01/05 20:36:27;;;;;;;1.35;1.25;;;18.70;61.90;;;;;;5047553;28;20036;-70
2021/01/05 20:38:53;;;;;;;1.52;1.42;;;18.70;61.90;;;;;;5047646;28;20480;-70
2021/01/05 20:41:19;;;;;;;1.58;1.48;;;18.70;62.80;;;;;;5045734;28;20029;-70
2021/01/05 20:43:45;;;;;;;2.15;1.55;;;18.70;62.00;;;;;;5048837;28;20028;-72